createdAt,value
2023-02-18T00:00:31.895Z,28.35
2023-02-18T00:01:09.713Z,29.60
2023-02-18T00:01:44.750Z,34.28
2023-02-18T00:02:16.928Z,32.72
2023-02-18T00:02:51.476Z,30.83
2023-02-18T00:03:28.098Z,31.50
2023-02-18T00:04:01.367Z,29.20
2023-02-18T00:04:33.826Z,31.02
2023-02-18T00:05:09.334Z,30.60
2023-02-18T00:05:41.412Z,31.13
2023-02-18T00:06:15.281Z,26.40
2023-02-18T00:06:50.058Z,31.63
2023-02-18T00:07:22.140Z,29.88
2023-02-18T00:07:56.890Z,29.45
2023-02-18T00:08:31.767Z,31.10
2023-02-18T00:09:04.972Z,29.75
2023-02-18T00:09:38.829Z,28.80
2023-02-18T00:10:18.336Z,29.25
2023-02-18T00:10:50.441Z,31.23
2023-02-18T00:11:22.969Z,30.20
2023-02-18T00:11:57.793Z,34.42
2023-02-18T00:12:31.588Z,30.50
2023-02-18T00:13:03.696Z,32.67
2023-02-18T00:13:38.855Z,30.13
2023-02-18T00:14:13.976Z,27.98
2023-02-18T00:14:46.163Z,29.40
2023-02-18T00:15:21.037Z,32.38
2023-02-18T00:15:53.150Z,29.40
2023-02-18T00:16:26.767Z,29.90
2023-02-18T00:17:01.492Z,31.55
2023-02-18T00:17:33.688Z,30.42
2023-02-18T00:18:06.006Z,32.53
2023-02-18T00:18:41.517Z,33.47
2023-02-18T00:19:15.289Z,32.92
2023-02-18T00:19:47.399Z,30.70
2023-02-18T00:20:22.534Z,28.90
2023-02-18T00:20:54.612Z,31.50
2023-02-18T00:21:27.304Z,33.47
2023-02-18T00:22:02.189Z,36.05
2023-02-18T00:22:34.451Z,32.25
2023-02-18T00:23:09.225Z,32.78
2023-02-18T00:23:44.210Z,30.00
2023-02-18T00:24:17.079Z,27.25
2023-02-18T00:24:49.396Z,33.30
2023-02-18T00:25:24.655Z,32.05
2023-02-18T00:26:00.512Z,28.63
2023-02-18T00:26:33.886Z,26.20
2023-02-18T00:27:08.575Z,32.22
2023-02-18T00:27:40.672Z,29.60
2023-02-18T00:28:12.746Z,32.55
2023-02-18T00:28:48.544Z,29.75
2023-02-18T00:29:21.013Z,31.05
2023-02-18T00:29:53.691Z,32.95
2023-02-18T00:30:28.720Z,32.03
2023-02-18T00:31:05.904Z,35.30
2023-02-18T00:31:40.190Z,34.28
2023-02-18T00:32:15.059Z,33.15
2023-02-18T00:32:47.217Z,33.58
2023-02-18T00:33:19.314Z,31.95
2023-02-18T00:33:54.248Z,30.10
2023-02-18T00:34:26.480Z,32.00
2023-02-18T00:34:59.272Z,33.10
2023-02-18T00:35:33.936Z,32.95
2023-02-18T00:36:09.671Z,32.50
2023-02-18T00:36:42.606Z,33.25
2023-02-18T00:37:17.757Z,32.30
2023-02-18T00:37:52.243Z,34.97
2023-02-18T00:38:26.931Z,33.88
2023-02-18T00:39:04.917Z,35.88
2023-02-18T00:39:38.240Z,33.90
2023-02-18T00:40:11.125Z,33.22
2023-02-18T00:40:46.280Z,33.38
2023-02-18T00:41:21.089Z,33.88
2023-02-18T00:41:53.206Z,33.17
2023-02-18T00:42:27.964Z,33.67
2023-02-18T00:43:00.096Z,30.85
2023-02-18T00:43:32.225Z,35.60
2023-02-18T00:44:08.205Z,34.58
2023-02-18T00:44:40.349Z,31.52
2023-02-18T00:45:12.445Z,30.42
2023-02-18T00:45:47.237Z,35.70
2023-02-18T00:46:19.931Z,31.50
2023-02-18T00:46:54.650Z,32.45
2023-02-18T00:47:26.759Z,34.65
2023-02-18T00:47:58.910Z,32.92
2023-02-18T00:48:33.655Z,32.75
2023-02-18T00:49:06.562Z,33.72
2023-02-18T00:49:42.990Z,33.95
2023-02-18T00:50:15.122Z,34.13
2023-02-18T00:50:47.700Z,32.45
2023-02-18T00:51:22.833Z,31.85
2023-02-18T00:51:54.925Z,31.10
2023-02-18T00:52:27.026Z,34.80
2023-02-18T00:52:59.107Z,33.65
2023-02-18T00:53:36.590Z,32.90
2023-02-18T00:54:09.267Z,33.20
2023-02-18T00:54:43.962Z,33.42
2023-02-18T00:55:16.346Z,33.80
2023-02-18T00:55:48.889Z,36.10
2023-02-18T00:56:23.734Z,34.13
2023-02-18T00:56:55.941Z,33.15
2023-02-18T00:57:28.047Z,33.28
2023-02-18T00:58:02.753Z,34.78
2023-02-18T00:58:34.964Z,33.60
2023-02-18T00:59:09.648Z,35.83
2023-02-18T00:59:44.505Z,33.05
2023-02-18T01:00:17.426Z,33.22
2023-02-18T01:00:49.794Z,35.55
2023-02-18T01:01:24.829Z,33.92
2023-02-18T01:01:56.999Z,34.70
2023-02-18T01:02:29.215Z,35.50
2023-02-18T01:03:03.988Z,35.08
2023-02-18T01:03:36.209Z,36.03
2023-02-18T01:04:08.505Z,35.50
2023-02-18T01:04:43.212Z,34.80
2023-02-18T01:05:17.138Z,36.30
2023-02-18T01:05:50.424Z,33.03
2023-02-18T01:06:25.390Z,35.13
2023-02-18T01:06:57.512Z,32.50
2023-02-18T01:07:29.606Z,33.45
2023-02-18T01:08:04.581Z,34.45
2023-02-18T01:08:40.489Z,35.92
2023-02-18T01:09:12.600Z,35.25
2023-02-18T01:09:47.286Z,31.63
2023-02-18T01:10:19.486Z,32.65
2023-02-18T01:10:54.819Z,34.22
2023-02-18T01:11:29.527Z,33.67
2023-02-18T01:12:01.683Z,33.20
2023-02-18T01:12:33.798Z,33.53
2023-02-18T01:13:05.963Z,36.33
2023-02-18T01:13:41.544Z,35.53
2023-02-18T01:14:13.658Z,37.13
2023-02-18T01:14:45.760Z,35.33
2023-02-18T01:15:21.060Z,35.08
2023-02-18T01:15:53.328Z,36.55
2023-02-18T01:16:25.736Z,38.85
2023-02-18T01:17:00.432Z,34.88
2023-02-18T01:17:33.033Z,35.17
2023-02-18T01:18:05.986Z,39.33
2023-02-18T01:18:42.520Z,35.70
2023-02-18T01:19:14.735Z,31.45
2023-02-18T01:19:46.847Z,36.67
2023-02-18T01:20:22.752Z,34.53
2023-02-18T01:20:55.295Z,37.75
2023-02-18T01:21:27.428Z,36.35
2023-02-18T01:22:02.241Z,37.08
2023-02-18T01:22:34.409Z,30.48
2023-02-18T01:23:06.671Z,35.28
2023-02-18T01:23:44.669Z,36.83
2023-02-18T01:24:16.805Z,37.35
2023-02-18T01:24:49.077Z,34.60
2023-02-18T01:25:23.921Z,36.58
2023-02-18T01:25:57.893Z,36.78
2023-02-18T01:26:32.585Z,37.40
2023-02-18T01:27:04.908Z,39.55
2023-02-18T01:27:37.126Z,35.28
2023-02-18T01:28:13.598Z,36.47
2023-02-18T01:28:45.724Z,36.90
2023-02-18T01:29:20.852Z,36.58
2023-02-18T01:29:52.946Z,36.42
2023-02-18T01:30:25.810Z,37.30
2023-02-18T01:31:00.512Z,33.15
2023-02-18T01:31:32.801Z,37.22
2023-02-18T01:32:05.149Z,37.70
2023-02-18T01:32:40.688Z,36.42
2023-02-18T01:33:14.503Z,36.60
2023-02-18T01:33:46.698Z,36.53
2023-02-18T01:34:21.417Z,37.72
2023-02-18T01:34:55.801Z,36.25
2023-02-18T01:35:28.533Z,36.08
2023-02-18T01:36:03.325Z,37.97
2023-02-18T01:36:35.509Z,37.20
2023-02-18T01:37:07.649Z,36.10
2023-02-18T01:37:43.702Z,37.92
2023-02-18T01:38:16.196Z,37.00
2023-02-18T01:38:54.543Z,39.03
2023-02-18T01:39:28.414Z,35.28
2023-02-18T01:40:00.533Z,39.58
2023-02-18T01:40:32.746Z,41.20
2023-02-18T01:41:08.480Z,34.60
2023-02-18T01:41:40.699Z,37.22
2023-02-18T01:42:19.963Z,36.72
2023-02-18T01:42:54.902Z,36.45
2023-02-18T01:43:27.167Z,32.47
2023-02-18T01:44:17.465Z,39.42
2023-02-18T01:44:53.965Z,35.13
2023-02-18T01:45:49.644Z,38.25
2023-02-18T01:46:25.063Z,38.35
2023-02-18T01:46:57.201Z,40.55
2023-02-18T01:47:29.497Z,36.65
2023-02-18T01:48:05.108Z,41.60
2023-02-18T01:48:43.499Z,37.65
2023-02-18T01:49:19.739Z,37.92
2023-02-18T01:49:54.089Z,37.92
2023-02-18T01:50:30.303Z,39.40
2023-02-18T01:51:07.773Z,43.20
2023-02-18T01:51:46.275Z,36.25
2023-02-18T01:52:21.139Z,40.30
2023-02-18T01:52:53.430Z,42.45
2023-02-18T01:53:31.911Z,36.65
2023-02-18T01:54:11.802Z,43.28
2023-02-18T01:54:50.401Z,39.72
2023-02-18T01:55:22.657Z,41.63
2023-02-18T01:55:55.262Z,33.58
2023-02-18T01:56:31.385Z,40.38
2023-02-18T01:57:10.656Z,41.70
2023-02-18T01:57:43.186Z,35.58
2023-02-18T01:58:16.978Z,42.92
2023-02-18T01:58:54.396Z,43.70
2023-02-18T01:59:33.765Z,39.90
2023-02-18T02:00:09.397Z,41.97
2023-02-18T02:00:47.203Z,37.10
2023-02-18T02:01:20.373Z,43.83
2023-02-18T02:01:56.439Z,36.95
2023-02-18T02:02:30.048Z,36.60
2023-02-18T02:03:02.146Z,39.38
2023-02-18T02:03:36.833Z,40.65
2023-02-18T02:04:10.486Z,44.17
2023-02-18T02:04:45.643Z,43.00
2023-02-18T02:05:18.557Z,40.72
2023-02-18T02:05:50.873Z,40.25
2023-02-18T02:06:25.444Z,37.20
2023-02-18T02:07:00.132Z,41.85
2023-02-18T02:07:33.072Z,42.88
2023-02-18T02:08:06.353Z,40.97
2023-02-18T02:08:41.061Z,44.00
2023-02-18T02:09:18.201Z,44.83
2023-02-18T02:09:58.526Z,42.42
2023-02-18T02:10:41.761Z,42.85
2023-02-18T02:11:24.882Z,39.67
2023-02-18T02:12:18.592Z,47.50
2023-02-18T02:13:00.893Z,39.10
2023-02-18T02:13:49.155Z,40.45
2023-02-18T02:14:36.908Z,39.65
2023-02-18T02:15:24.376Z,42.05
2023-02-18T02:16:04.211Z,35.67
2023-02-18T02:16:47.590Z,43.65
2023-02-18T02:17:33.455Z,44.15
2023-02-18T02:18:24.368Z,40.65
2023-02-18T02:19:11.872Z,38.75
2023-02-18T02:20:12.086Z,39.03
2023-02-18T02:21:32.798Z,34.10
2023-02-18T02:22:40.703Z,37.65
2023-02-18T02:23:50.745Z,35.10
2023-02-18T02:25:07.723Z,38.45
2023-02-18T02:26:18.091Z,35.22
2023-02-18T02:27:10.556Z,36.42
2023-02-18T02:28:15.165Z,32.50
2023-02-18T02:29:28.065Z,36.75
2023-02-18T02:30:45.791Z,37.08
2023-02-18T02:31:45.376Z,30.90
2023-02-18T02:32:55.402Z,30.02
2023-02-18T02:33:54.277Z,34.80
2023-02-18T02:34:44.360Z,35.42
2023-02-18T02:35:20.828Z,30.30
2023-02-18T02:35:58.357Z,38.30
2023-02-18T02:36:40.122Z,38.08
2023-02-18T02:37:17.534Z,39.35
2023-02-18T02:38:00.125Z,35.10
2023-02-18T02:38:40.069Z,36.72
2023-02-18T02:39:21.286Z,32.67
2023-02-18T02:40:03.217Z,35.53
2023-02-18T02:40:48.946Z,37.92
2023-02-18T02:41:32.423Z,36.63
2023-02-18T02:42:16.052Z,38.63
2023-02-18T02:42:59.990Z,36.13
2023-02-18T02:43:48.919Z,35.33
2023-02-18T02:44:28.547Z,38.22
2023-02-18T02:45:10.133Z,35.78
2023-02-18T02:45:52.978Z,40.28
2023-02-18T02:46:33.812Z,35.33
2023-02-18T02:47:11.801Z,33.30
2023-02-18T02:47:55.691Z,39.65
2023-02-18T02:48:40.367Z,41.03
2023-02-18T02:49:25.041Z,39.10
2023-02-18T02:50:04.946Z,32.63
2023-02-18T02:50:46.828Z,35.53
2023-02-18T02:51:27.781Z,37.30
2023-02-18T02:52:10.658Z,30.38
2023-02-18T02:52:48.235Z,33.25
2023-02-18T02:53:26.380Z,35.72
2023-02-18T02:54:14.443Z,37.75
2023-02-18T02:54:46.603Z,34.60
2023-02-18T02:55:21.750Z,35.95
2023-02-18T02:55:56.520Z,32.22
2023-02-18T02:56:30.134Z,34.60
2023-02-18T02:57:08.255Z,30.58
2023-02-18T02:57:49.430Z,33.40
2023-02-18T02:58:26.187Z,29.95
2023-02-18T02:59:05.186Z,37.42
2023-02-18T02:59:48.766Z,37.05
2023-02-18T03:00:27.694Z,30.25
2023-02-18T03:01:24.302Z,32.85
2023-02-18T03:02:10.332Z,38.60
2023-02-18T03:02:59.141Z,29.42
2023-02-18T03:03:49.495Z,29.60
2023-02-18T03:04:52.042Z,31.92
2023-02-18T03:05:41.973Z,32.42
2023-02-18T03:06:51.962Z,30.95
2023-02-18T03:07:54.556Z,29.95
2023-02-18T03:08:41.177Z,33.83
2023-02-18T03:09:19.151Z,33.15
2023-02-18T03:10:12.347Z,33.55
2023-02-18T03:10:54.100Z,35.58
2023-02-18T03:11:34.854Z,35.47
2023-02-18T03:12:12.931Z,32.03
2023-02-18T03:12:56.840Z,35.00
2023-02-18T03:13:44.077Z,31.80
2023-02-18T03:14:27.801Z,33.85
2023-02-18T03:15:11.170Z,36.42
2023-02-18T03:15:50.374Z,23.48
2023-02-18T03:16:27.957Z,33.45
2023-02-18T03:17:06.411Z,38.15
2023-02-18T03:17:46.468Z,31.13
2023-02-18T03:18:23.759Z,29.33
2023-02-18T03:19:07.413Z,32.25
2023-02-18T03:19:45.823Z,33.60
2023-02-18T03:20:27.211Z,35.53
2023-02-18T03:21:09.134Z,30.80
2023-02-18T03:21:46.673Z,35.53
2023-02-18T03:22:23.631Z,35.47
2023-02-18T03:23:01.184Z,33.65
2023-02-18T03:23:38.988Z,32.67
2023-02-18T03:24:17.076Z,34.33
2023-02-18T03:24:55.562Z,36.35
2023-02-18T03:25:29.937Z,35.05
2023-02-18T03:26:04.451Z,36.03
2023-02-18T03:26:43.768Z,31.40
2023-02-18T03:27:19.581Z,33.72
2023-02-18T03:27:58.220Z,31.77
2023-02-18T03:28:32.398Z,35.80
2023-02-18T03:29:10.406Z,34.42
2023-02-18T03:29:48.080Z,32.00
2023-02-18T03:30:23.858Z,31.63
2023-02-18T03:30:59.563Z,34.58
2023-02-18T03:31:38.455Z,32.90
2023-02-18T03:32:13.521Z,31.85
2023-02-18T03:32:47.590Z,30.58
2023-02-18T03:33:29.211Z,31.02
2023-02-18T03:34:05.252Z,29.70
2023-02-18T03:34:42.432Z,33.08
2023-02-18T03:35:19.261Z,32.78
2023-02-18T03:35:53.788Z,22.52
2023-02-18T03:36:30.244Z,35.42
2023-02-18T03:37:05.827Z,34.70
2023-02-18T03:37:42.217Z,29.58
2023-02-18T03:38:19.351Z,31.27
2023-02-18T03:38:59.060Z,31.25
2023-02-18T03:39:34.678Z,34.10
2023-02-18T03:40:09.426Z,34.80
2023-02-18T03:40:44.328Z,29.88
2023-02-18T03:41:16.955Z,37.13
2023-02-18T03:41:49.804Z,32.92
2023-02-18T03:42:28.769Z,33.40
2023-02-18T03:43:00.977Z,35.72
2023-02-18T03:43:34.205Z,33.70
2023-02-18T03:44:08.806Z,34.25
2023-02-18T03:44:43.493Z,31.20
2023-02-18T03:45:17.039Z,36.85
2023-02-18T03:45:49.225Z,31.08
2023-02-18T03:46:24.007Z,37.20
2023-02-18T03:46:56.132Z,32.78
2023-02-18T03:47:28.639Z,34.35
2023-02-18T03:48:03.333Z,35.33
2023-02-18T03:48:35.567Z,34.47
2023-02-18T03:49:07.655Z,33.20
2023-02-18T03:49:43.390Z,31.02
2023-02-18T03:50:15.797Z,28.55
2023-02-18T03:50:47.916Z,34.80
2023-02-18T03:51:20.665Z,35.03
2023-02-18T03:51:58.025Z,33.47
2023-02-18T03:52:30.166Z,35.90
2023-02-18T03:53:02.288Z,36.33
2023-02-18T03:53:36.958Z,31.80
2023-02-18T03:54:09.265Z,32.38
2023-02-18T03:54:41.532Z,31.33
2023-02-18T03:55:14.287Z,32.17
2023-02-18T03:55:49.071Z,33.17
2023-02-18T03:56:21.668Z,33.15
2023-02-18T03:56:53.940Z,34.30
2023-02-18T03:57:28.669Z,27.73
2023-02-18T03:58:00.737Z,33.83
2023-02-18T03:58:32.850Z,35.80
2023-02-18T03:59:07.557Z,34.83
2023-02-18T03:59:39.754Z,30.80
2023-02-18T04:00:13.060Z,36.83
2023-02-18T04:00:50.403Z,30.85
2023-02-18T04:01:23.586Z,34.60
2023-02-18T04:01:55.691Z,34.35
2023-02-18T04:02:30.759Z,34.78
2023-02-18T04:03:03.165Z,33.83
2023-02-18T04:03:35.395Z,34.22
2023-02-18T04:04:10.567Z,33.22
2023-02-18T04:04:42.800Z,33.22
2023-02-18T04:05:15.483Z,35.53
2023-02-18T04:05:50.736Z,32.58
2023-02-18T04:06:23.945Z,29.10
2023-02-18T04:06:58.724Z,33.35
2023-02-18T04:07:33.485Z,33.50
2023-02-18T04:08:06.044Z,32.63
2023-02-18T04:08:38.242Z,34.95
2023-02-18T04:09:13.291Z,33.35
2023-02-18T04:09:45.420Z,35.33
2023-02-18T04:10:17.783Z,29.02
2023-02-18T04:10:53.106Z,31.58
2023-02-18T04:11:25.338Z,30.98
2023-02-18T04:12:00.015Z,35.00
2023-02-18T04:12:32.316Z,33.92
2023-02-18T04:13:05.384Z,33.78
2023-02-18T04:13:40.251Z,31.08
2023-02-18T04:14:14.462Z,34.20
2023-02-18T04:14:46.649Z,35.63
2023-02-18T04:15:21.543Z,34.00
2023-02-18T04:15:53.662Z,32.25
2023-02-18T04:16:26.082Z,32.50
2023-02-18T04:17:01.404Z,35.38
2023-02-18T04:17:34.174Z,31.65
2023-02-18T04:18:06.481Z,32.42
2023-02-18T04:18:41.163Z,32.00
2023-02-18T04:19:13.329Z,33.58
2023-02-18T04:19:45.650Z,34.75
2023-02-18T04:20:20.628Z,32.42
2023-02-18T04:20:52.697Z,32.53
2023-02-18T04:21:24.926Z,34.20
2023-02-18T04:22:02.308Z,33.20
2023-02-18T04:22:34.576Z,33.10
2023-02-18T04:23:06.737Z,30.73
2023-02-18T04:23:41.443Z,33.95
2023-02-18T04:24:13.817Z,31.08
2023-02-18T04:24:46.027Z,32.78
2023-02-18T04:25:21.084Z,30.90
2023-02-18T04:25:53.221Z,29.85
2023-02-18T04:26:25.361Z,28.48
2023-02-18T04:27:00.010Z,31.70
2023-02-18T04:27:32.194Z,26.92
2023-02-18T04:28:04.940Z,27.92
2023-02-18T04:28:39.595Z,28.60
2023-02-18T04:29:11.928Z,28.90
2023-02-18T04:29:44.269Z,30.42
2023-02-18T04:30:19.236Z,29.00
2023-02-18T04:30:51.562Z,31.15
2023-02-18T04:31:23.761Z,33.15
2023-02-18T04:31:58.522Z,31.17
2023-02-18T04:32:30.589Z,29.95
2023-02-18T04:33:02.789Z,25.30
2023-02-18T04:33:37.596Z,29.73
2023-02-18T04:34:09.680Z,29.38
2023-02-18T04:34:42.031Z,28.50
2023-02-18T04:35:17.110Z,28.65
2023-02-18T04:35:49.300Z,28.55
2023-02-18T04:36:21.523Z,26.35
2023-02-18T04:36:56.239Z,28.85
2023-02-18T04:37:33.533Z,29.90
2023-02-18T04:38:05.597Z,26.40
2023-02-18T04:38:37.941Z,26.52
2023-02-18T04:39:13.120Z,28.63
2023-02-18T04:39:45.409Z,29.75
2023-02-18T04:40:17.994Z,28.52
2023-02-18T04:40:52.680Z,25.50
2023-02-18T04:41:24.860Z,30.17
2023-02-18T04:41:57.046Z,28.38
2023-02-18T04:42:32.546Z,26.60
2023-02-18T04:43:04.876Z,25.83
2023-02-18T04:43:37.008Z,29.08
2023-02-18T04:44:11.837Z,27.70
2023-02-18T04:44:45.211Z,28.33
2023-02-18T04:45:21.847Z,30.25
2023-02-18T04:45:53.962Z,30.55
2023-02-18T04:46:26.134Z,28.77
2023-02-18T04:47:01.042Z,25.33
2023-02-18T04:47:34.003Z,27.10
2023-02-18T04:48:06.541Z,31.38
2023-02-18T04:48:38.715Z,29.92
2023-02-18T04:49:13.395Z,27.92
2023-02-18T04:49:45.609Z,28.83
2023-02-18T04:50:18.001Z,25.52
2023-02-18T04:50:50.219Z,28.10
2023-02-18T04:51:24.869Z,28.10
2023-02-18T04:51:56.962Z,31.27
2023-02-18T04:52:31.925Z,32.45
2023-02-18T04:53:06.748Z,28.50
2023-02-18T04:53:38.838Z,27.48
2023-02-18T04:54:10.917Z,30.02
2023-02-18T04:54:45.828Z,30.10
2023-02-18T04:55:18.341Z,28.67
2023-02-18T04:55:51.382Z,30.20
2023-02-18T04:56:26.065Z,27.50
2023-02-18T04:56:58.156Z,29.95
2023-02-18T04:57:30.373Z,26.10
2023-02-18T04:58:05.107Z,27.75
2023-02-18T04:58:37.357Z,30.25
2023-02-18T04:59:09.509Z,29.38
2023-02-18T04:59:41.888Z,30.67
2023-02-18T05:00:18.831Z,29.88
2023-02-18T05:00:51.013Z,30.55
2023-02-18T05:01:23.143Z,26.08
2023-02-18T05:01:57.868Z,26.77
2023-02-18T05:02:29.920Z,28.58
2023-02-18T05:03:02.069Z,26.63
2023-02-18T05:03:36.765Z,31.67
2023-02-18T05:04:09.042Z,29.85
2023-02-18T05:04:41.141Z,29.00
2023-02-18T05:05:16.208Z,31.90
2023-02-18T05:05:48.309Z,30.13
2023-02-18T05:06:20.484Z,28.17
2023-02-18T05:06:55.158Z,30.90
2023-02-18T05:07:27.330Z,29.10
2023-02-18T05:08:02.227Z,27.98
2023-02-18T05:08:36.895Z,27.52
2023-02-18T05:09:09.702Z,29.95
2023-02-18T05:09:41.854Z,26.42
2023-02-18T05:10:19.538Z,31.15
2023-02-18T05:10:51.865Z,32.42
2023-02-18T05:11:24.273Z,33.58
2023-02-18T05:11:59.216Z,28.60
2023-02-18T05:12:31.495Z,27.55
2023-02-18T05:13:03.625Z,32.05
2023-02-18T05:13:38.428Z,29.38
2023-02-18T05:14:10.602Z,33.55
2023-02-18T05:14:42.865Z,30.92
2023-02-18T05:15:15.476Z,31.48
2023-02-18T05:15:50.200Z,31.02
2023-02-18T05:16:23.204Z,31.95
2023-02-18T05:16:55.338Z,31.17
2023-02-18T05:17:30.140Z,32.35
2023-02-18T05:18:02.260Z,29.67
2023-02-18T05:18:34.399Z,31.45
2023-02-18T05:19:09.377Z,26.92
2023-02-18T05:19:41.692Z,31.80
2023-02-18T05:20:14.278Z,27.75
2023-02-18T05:20:48.959Z,26.77
2023-02-18T05:21:21.119Z,31.75
2023-02-18T05:21:53.210Z,23.63
2023-02-18T05:22:28.196Z,29.20
2023-02-18T05:23:03.020Z,29.50
2023-02-18T05:23:35.138Z,28.40
2023-02-18T05:24:10.527Z,28.17
2023-02-18T05:24:42.614Z,30.30
2023-02-18T05:25:14.705Z,27.83
2023-02-18T05:25:49.536Z,31.35
2023-02-18T05:26:21.682Z,30.73
2023-02-18T05:26:53.761Z,30.67
2023-02-18T05:27:28.525Z,29.48
2023-02-18T05:28:00.640Z,28.88
2023-02-18T05:28:33.237Z,28.52
2023-02-18T05:29:08.577Z,31.02
2023-02-18T05:29:40.670Z,30.17
2023-02-18T05:30:13.296Z,29.42
2023-02-18T05:30:48.002Z,27.10
2023-02-18T05:31:20.302Z,27.13
2023-02-18T05:31:52.602Z,29.98
2023-02-18T05:32:27.435Z,29.55
2023-02-18T05:32:59.587Z,29.08
2023-02-18T05:33:31.832Z,32.15
2023-02-18T05:34:06.979Z,27.52
2023-02-18T05:34:39.143Z,30.73
2023-02-18T05:35:11.522Z,29.85
2023-02-18T05:35:46.317Z,27.65
2023-02-18T05:36:18.485Z,30.38
2023-02-18T05:36:50.976Z,26.98
2023-02-18T05:37:25.717Z,28.75
2023-02-18T05:37:57.853Z,29.83
2023-02-18T05:38:32.631Z,27.90
2023-02-18T05:39:07.429Z,24.98
2023-02-18T05:39:39.769Z,27.42
2023-02-18T05:40:12.762Z,26.25
2023-02-18T05:40:47.792Z,26.02
2023-02-18T05:41:20.669Z,26.58
2023-02-18T05:41:52.821Z,27.38
2023-02-18T05:42:27.788Z,26.90
2023-02-18T05:42:59.873Z,26.88
2023-02-18T05:43:52.633Z,27.05
2023-02-18T05:44:30.653Z,25.75
2023-02-18T05:45:05.413Z,24.70
2023-02-18T05:45:37.617Z,25.90
2023-02-18T05:46:10.247Z,25.38
2023-02-18T05:46:45.173Z,24.98
2023-02-18T05:47:17.452Z,26.05
2023-02-18T05:47:49.619Z,25.70
2023-02-18T05:48:24.305Z,24.08
2023-02-18T05:48:56.384Z,26.02
2023-02-18T05:49:29.149Z,28.55
2023-02-18T05:50:03.819Z,27.98
2023-02-18T05:50:36.408Z,26.60
2023-02-18T05:51:08.586Z,27.65
2023-02-18T05:51:43.643Z,28.42
2023-02-18T05:52:15.791Z,29.95
2023-02-18T05:52:50.576Z,27.58
2023-02-18T05:53:22.766Z,26.40
2023-02-18T05:53:57.746Z,25.38
2023-02-18T05:54:32.721Z,28.17
2023-02-18T05:55:05.645Z,29.13
2023-02-18T05:55:39.434Z,27.10
2023-02-18T05:56:11.922Z,28.00
2023-02-18T05:56:46.809Z,27.10
2023-02-18T05:57:19.124Z,26.50
2023-02-18T05:57:51.627Z,25.08
2023-02-18T05:58:26.309Z,23.88
2023-02-18T05:58:58.708Z,23.02
2023-02-18T05:59:33.854Z,25.55
2023-02-18T06:00:09.384Z,22.65
2023-02-18T06:00:41.554Z,26.63
2023-02-18T06:01:16.376Z,25.75
2023-02-18T06:01:49.281Z,28.40
2023-02-18T06:02:24.047Z,26.77
2023-02-18T06:02:56.266Z,30.73
2023-02-18T06:03:28.358Z,29.83
2023-02-18T06:04:03.013Z,25.73
2023-02-18T06:04:35.401Z,27.60
2023-02-18T06:05:08.702Z,28.88
2023-02-18T06:05:43.389Z,27.45
2023-02-18T06:06:18.398Z,25.65
2023-02-18T06:06:50.913Z,28.48
2023-02-18T06:07:25.716Z,25.90
2023-02-18T06:07:57.865Z,25.02
2023-02-18T06:08:29.953Z,29.60
2023-02-18T06:09:08.481Z,26.88
2023-02-18T06:09:40.640Z,26.15
2023-02-18T06:10:14.416Z,28.25
2023-02-18T06:10:49.497Z,27.08
2023-02-18T06:11:22.026Z,23.25
2023-02-18T06:11:56.732Z,27.83
2023-02-18T06:12:31.560Z,27.75
2023-02-18T06:13:04.345Z,26.70
2023-02-18T06:13:36.528Z,28.55
2023-02-18T06:14:11.414Z,26.58
2023-02-18T06:14:43.650Z,26.60
2023-02-18T06:15:15.868Z,28.58
2023-02-18T06:15:54.038Z,27.75
2023-02-18T06:16:26.490Z,25.20
2023-02-18T06:16:58.721Z,26.48
2023-02-18T06:17:33.440Z,25.92
2023-02-18T06:18:07.375Z,27.40
2023-02-18T06:18:39.593Z,26.50
2023-02-18T06:19:14.278Z,24.30
2023-02-18T06:19:46.625Z,25.15
2023-02-18T06:20:19.200Z,27.58
2023-02-18T06:20:54.167Z,26.70
2023-02-18T06:21:26.919Z,26.27
2023-02-18T06:22:01.575Z,25.80
2023-02-18T06:22:33.645Z,25.85
2023-02-18T06:23:07.546Z,26.95
2023-02-18T06:23:42.334Z,26.08
2023-02-18T06:24:17.080Z,28.20
2023-02-18T06:24:49.161Z,25.35
2023-02-18T06:25:23.868Z,25.65
2023-02-18T06:25:55.958Z,26.60
2023-02-18T06:26:28.101Z,27.15
2023-02-18T06:27:03.436Z,25.05
2023-02-18T06:27:35.552Z,23.67
2023-02-18T06:28:07.720Z,24.65
2023-02-18T06:28:42.981Z,23.83
2023-02-18T06:29:15.060Z,26.30
2023-02-18T06:29:47.755Z,24.70
2023-02-18T06:30:24.269Z,22.23
2023-02-18T06:30:56.932Z,26.13
2023-02-18T06:31:29.388Z,24.90
2023-02-18T06:32:04.253Z,26.38
2023-02-18T06:32:37.374Z,23.90
2023-02-18T06:33:09.471Z,24.42
2023-02-18T06:33:44.152Z,24.95
2023-02-18T06:34:16.656Z,25.50
2023-02-18T06:34:48.801Z,24.85
2023-02-18T06:35:23.572Z,22.60
2023-02-18T06:35:58.002Z,20.33
2023-02-18T06:36:30.065Z,20.17
2023-02-18T06:37:04.731Z,21.40
2023-02-18T06:37:36.863Z,21.63
2023-02-18T06:38:09.033Z,21.23
2023-02-18T06:38:45.536Z,19.27
2023-02-18T06:39:20.266Z,21.83
2023-02-18T06:39:52.688Z,23.38
2023-02-18T06:40:27.539Z,19.85
2023-02-18T06:40:59.867Z,19.95
2023-02-18T06:41:32.077Z,19.52
2023-02-18T06:42:07.113Z,21.58
2023-02-18T06:42:39.307Z,19.45
2023-02-18T06:43:11.915Z,18.52
2023-02-18T06:43:46.652Z,19.52
2023-02-18T06:44:18.765Z,17.80
2023-02-18T06:44:50.886Z,20.40
2023-02-18T06:45:25.640Z,19.60
2023-02-18T06:45:57.774Z,16.17
2023-02-18T06:46:30.149Z,19.25
2023-02-18T06:47:04.857Z,18.15
2023-02-18T06:47:36.968Z,18.05
2023-02-18T06:48:09.049Z,21.35
2023-02-18T06:48:43.757Z,18.52
2023-02-18T06:49:15.954Z,17.98
2023-02-18T06:49:48.070Z,14.23
2023-02-18T06:50:22.922Z,17.55
2023-02-18T06:50:55.247Z,17.33
2023-02-18T06:51:27.472Z,16.60
2023-02-18T06:52:02.313Z,19.02
2023-02-18T06:52:34.688Z,17.55
2023-02-18T06:53:06.894Z,18.33
2023-02-18T06:53:41.653Z,15.00
2023-02-18T06:54:13.769Z,16.10
2023-02-18T06:54:48.555Z,14.32
2023-02-18T06:55:26.056Z,14.18
2023-02-18T06:55:58.445Z,13.35
2023-02-18T06:56:31.102Z,15.23
2023-02-18T06:57:05.989Z,16.75
2023-02-18T06:57:38.200Z,16.48
2023-02-18T06:58:11.477Z,15.48
2023-02-18T06:58:46.184Z,13.32
2023-02-18T06:59:18.308Z,14.40
2023-02-18T06:59:50.437Z,14.25
2023-02-18T07:00:23.510Z,15.05
2023-02-18T07:00:58.658Z,13.98
2023-02-18T07:01:30.824Z,14.23
2023-02-18T07:02:02.976Z,14.52
2023-02-18T07:02:37.676Z,12.93
2023-02-18T07:03:12.929Z,12.63
2023-02-18T07:03:50.066Z,12.48
2023-02-18T07:04:22.405Z,14.88
2023-02-18T07:04:54.781Z,15.88
2023-02-18T07:05:29.476Z,15.00
2023-02-18T07:06:01.857Z,16.83
2023-02-18T07:06:33.867Z,21.45
2023-02-18T07:07:08.658Z,20.00
2023-02-18T07:07:40.838Z,20.42
2023-02-18T07:08:15.805Z,11.63
2023-02-18T07:08:48.153Z,12.82
2023-02-18T07:09:20.240Z,16.30
2023-02-18T07:09:59.336Z,15.93
2023-02-18T07:10:31.439Z,12.35
2023-02-18T07:11:06.336Z,15.27
2023-02-18T07:11:38.521Z,13.32
2023-02-18T07:12:10.883Z,15.23
2023-02-18T07:12:45.668Z,12.60
2023-02-18T07:13:18.256Z,13.50
2023-02-18T07:13:50.566Z,14.93
2023-02-18T07:14:26.638Z,17.05
2023-02-18T07:14:58.770Z,12.63
2023-02-18T07:15:30.928Z,9.25
2023-02-18T07:16:05.683Z,12.75
2023-02-18T07:16:37.891Z,11.18
2023-02-18T07:17:12.707Z,14.13
2023-02-18T07:17:44.828Z,13.43
2023-02-18T07:18:19.530Z,11.00
2023-02-18T07:18:51.633Z,10.82
2023-02-18T07:19:23.802Z,12.25
2023-02-18T07:19:58.587Z,14.95
2023-02-18T07:20:30.771Z,11.23
2023-02-18T07:21:02.974Z,11.80
2023-02-18T07:21:37.728Z,11.88
2023-02-18T07:22:10.041Z,12.10
2023-02-18T07:22:42.263Z,12.80
2023-02-18T07:23:17.121Z,12.98
2023-02-18T07:23:49.485Z,14.15
2023-02-18T07:24:21.650Z,14.55
2023-02-18T07:24:59.077Z,11.23
2023-02-18T07:25:31.271Z,11.40
2023-02-18T07:26:08.227Z,10.27
2023-02-18T07:26:40.684Z,10.63
2023-02-18T07:27:20.632Z,10.63
2023-02-18T07:27:53.197Z,9.55
2023-02-18T07:28:25.362Z,11.77
2023-02-18T07:29:00.096Z,11.77
2023-02-18T07:29:32.211Z,11.85
2023-02-18T07:30:05.048Z,12.77
2023-02-18T07:30:39.740Z,10.70
2023-02-18T07:31:12.039Z,11.13
2023-02-18T07:31:46.870Z,12.02
2023-02-18T07:32:20.248Z,9.95
2023-02-18T07:32:52.362Z,14.07
2023-02-18T07:33:27.113Z,10.77
2023-02-18T07:33:59.317Z,10.48
2023-02-18T07:34:31.503Z,12.57
2023-02-18T07:35:06.402Z,10.82
2023-02-18T07:35:38.507Z,9.10
2023-02-18T07:36:10.824Z,8.70